createdAt,value
2023-01-21T00:01:28.028Z,27.83
2023-01-21T00:03:54.476Z,29.27
2023-01-21T00:06:20.814Z,29.92
2023-01-21T00:08:47.181Z,29.35
2023-01-21T00:11:14.983Z,29.20
2023-01-21T00:13:42.060Z,29.25
2023-01-21T00:16:08.799Z,28.13
2023-01-21T00:18:35.433Z,27.52
2023-01-21T00:21:01.855Z,29.90
2023-01-21T00:23:28.434Z,27.90
2023-01-21T00:26:01.947Z,27.50
2023-01-21T00:28:31.861Z,28.50
2023-01-21T00:30:59.373Z,27.75
2023-01-21T00:33:26.197Z,27.65
2023-01-21T00:35:58.385Z,25.88
2023-01-21T00:38:24.787Z,23.33
2023-01-21T00:40:51.196Z,23.45
2023-01-21T00:43:17.605Z,24.67
2023-01-21T00:45:44.021Z,22.67
2023-01-21T00:48:10.446Z,22.02
2023-01-21T00:50:36.821Z,24.23
2023-01-21T00:53:03.155Z,23.42
2023-01-21T00:55:29.531Z,22.38
2023-01-21T00:57:56.211Z,23.20
2023-01-21T01:00:25.901Z,21.63
2023-01-21T01:02:52.314Z,23.40
2023-01-21T01:05:19.970Z,22.45
2023-01-21T01:07:47.698Z,20.95
2023-01-21T01:10:14.143Z,22.70
2023-01-21T01:12:40.634Z,23.58
2023-01-21T01:15:07.337Z,21.48
2023-01-21T01:17:35.590Z,19.58
2023-01-21T01:20:02.144Z,20.15
2023-01-21T01:22:28.855Z,22.63
2023-01-21T01:24:55.297Z,21.92
2023-01-21T01:27:21.627Z,21.38
2023-01-21T01:29:48.556Z,21.67
2023-01-21T01:32:15.032Z,21.33
2023-01-21T01:34:41.488Z,22.85
2023-01-21T01:37:10.182Z,21.58
2023-01-21T01:39:36.590Z,22.17
2023-01-21T01:42:03.770Z,22.85
2023-01-21T01:44:48.799Z,22.08
2023-01-21T01:47:15.576Z,23.05
2023-01-21T01:49:42.631Z,21.73
2023-01-21T01:52:10.186Z,22.80
2023-01-21T01:54:39.089Z,24.10
2023-01-21T01:57:06.875Z,22.60
2023-01-21T01:59:33.674Z,20.17
2023-01-21T02:02:03.084Z,22.27
2023-01-21T02:04:31.800Z,22.55
2023-01-21T02:06:58.220Z,22.25
2023-01-21T02:09:29.689Z,23.13
2023-01-21T02:12:00.113Z,23.65
2023-01-21T02:14:26.536Z,25.05
2023-01-21T02:16:53.052Z,24.60
2023-01-21T02:19:28.622Z,23.95
2023-01-21T02:22:04.200Z,23.25
2023-01-21T02:25:08.954Z,23.20
2023-01-21T02:27:44.480Z,22.33
2023-01-21T02:30:29.502Z,20.88
2023-01-21T02:33:05.016Z,20.65
2023-01-21T02:35:34.406Z,19.48
2023-01-21T02:38:00.871Z,18.05
2023-01-21T02:40:27.233Z,18.63
2023-01-21T02:42:56.649Z,19.02
2023-01-21T02:45:41.321Z,19.40
2023-01-21T02:48:07.704Z,19.25
2023-01-21T02:50:40.969Z,17.42
2023-01-21T02:53:07.310Z,19.35
2023-01-21T02:55:38.216Z,19.10
2023-01-21T02:58:09.787Z,18.83
2023-01-21T03:00:50.942Z,18.98
2023-01-21T03:03:23.442Z,20.00
2023-01-21T03:05:55.874Z,19.40
2023-01-21T03:08:23.262Z,20.77
2023-01-21T03:11:01.704Z,21.15
2023-01-21T03:13:49.848Z,20.73
2023-01-21T03:16:37.100Z,21.02
2023-01-21T03:19:05.884Z,21.55
2023-01-21T03:21:33.125Z,21.17
2023-01-21T03:23:59.910Z,21.02
2023-01-21T03:26:35.842Z,23.30
2023-01-21T03:29:04.961Z,20.92
2023-01-21T03:31:33.293Z,22.90
2023-01-21T03:34:01.334Z,22.02
2023-01-21T03:36:46.448Z,18.95
2023-01-21T03:39:24.094Z,20.52
2023-01-21T03:41:50.596Z,20.23
2023-01-21T03:44:16.970Z,20.15
2023-01-21T03:47:01.609Z,19.25
2023-01-21T03:49:30.914Z,21.23
2023-01-21T03:51:59.087Z,22.35
2023-01-21T03:54:25.510Z,23.00
2023-01-21T03:56:51.931Z,23.92
2023-01-21T03:59:18.360Z,23.38
2023-01-21T04:01:44.751Z,24.40
2023-01-21T04:04:14.146Z,24.83
2023-01-21T04:06:40.462Z,25.95
2023-01-21T04:09:07.422Z,27.38
2023-01-21T04:11:34.248Z,25.63
2023-01-21T04:14:00.888Z,21.27
2023-01-21T04:16:27.364Z,21.20
2023-01-21T04:18:54.097Z,17.75
2023-01-21T04:21:20.465Z,17.77
2023-01-21T04:23:47.051Z,16.98
2023-01-21T04:26:13.515Z,17.67
2023-01-21T04:28:39.878Z,17.05
2023-01-21T04:31:06.306Z,18.73
2023-01-21T04:33:32.732Z,16.33
2023-01-21T04:35:59.948Z,16.65
2023-01-21T04:38:26.794Z,19.00
2023-01-21T04:40:53.408Z,18.02
2023-01-21T04:43:20.143Z,17.58
2023-01-21T04:45:46.740Z,19.00
2023-01-21T04:48:13.360Z,17.42
2023-01-21T04:50:39.816Z,16.92
2023-01-21T04:53:06.187Z,20.05
2023-01-21T04:55:32.538Z,19.98
2023-01-21T04:57:58.931Z,19.38
2023-01-21T05:00:25.413Z,22.33
2023-01-21T05:02:51.798Z,16.77
2023-01-21T05:05:18.153Z,18.25
2023-01-21T05:07:44.556Z,18.02
2023-01-21T05:10:15.335Z,18.65
2023-01-21T05:12:41.886Z,18.55
2023-01-21T05:15:08.934Z,18.27
2023-01-21T05:17:35.276Z,18.38
2023-01-21T05:20:01.726Z,17.83
2023-01-21T05:22:28.083Z,17.85
2023-01-21T05:24:54.533Z,19.25
2023-01-21T05:27:21.768Z,18.77
2023-01-21T05:29:48.429Z,17.75
2023-01-21T05:32:14.924Z,18.10
2023-01-21T05:34:41.250Z,18.10
2023-01-21T05:37:07.583Z,18.30
2023-01-21T05:39:33.984Z,16.63
2023-01-21T05:42:00.403Z,16.55
2023-01-21T05:44:26.853Z,15.52
2023-01-21T05:46:53.255Z,19.40
2023-01-21T05:49:19.904Z,18.80
2023-01-21T05:51:48.876Z,18.90
2023-01-21T05:54:15.279Z,18.35
2023-01-21T05:56:41.844Z,18.95
2023-01-21T05:59:09.096Z,18.13
2023-01-21T06:01:36.238Z,18.42
2023-01-21T06:04:02.955Z,16.38
2023-01-21T06:06:29.355Z,16.70
2023-01-21T06:08:55.717Z,15.00
2023-01-21T06:11:23.362Z,14.82
2023-01-21T06:13:49.776Z,14.27
2023-01-21T06:16:16.614Z,14.60
2023-01-21T06:18:43.107Z,10.82
2023-01-21T06:21:09.529Z,9.38
2023-01-21T06:23:35.939Z,9.98
2023-01-21T06:26:02.777Z,9.98
2023-01-21T06:28:29.680Z,9.50
2023-01-21T06:30:57.424Z,8.90
2023-01-21T06:33:23.872Z,10.70
2023-01-21T06:35:50.327Z,10.05
2023-01-21T06:38:16.764Z,11.20
2023-01-21T06:40:43.381Z,10.85
2023-01-21T06:43:09.881Z,10.13
2023-01-21T06:45:36.200Z,10.50
2023-01-21T06:48:03.352Z,10.98
2023-01-21T06:50:29.721Z,11.23
2023-01-21T06:52:56.076Z,11.38
2023-01-21T06:55:22.519Z,11.52
2023-01-21T06:57:48.922Z,10.60
2023-01-21T07:00:15.863Z,11.93
2023-01-21T07:02:42.433Z,11.20
2023-01-21T07:05:09.028Z,12.48
2023-01-21T07:07:37.960Z,10.82
2023-01-21T07:10:04.572Z,12.85
2023-01-21T07:12:31.743Z,12.05
2023-01-21T07:14:58.129Z,12.73
2023-01-21T07:17:24.533Z,11.70
2023-01-21T07:19:50.953Z,11.80
2023-01-21T07:22:17.366Z,13.60
2023-01-21T07:24:43.856Z,12.60
2023-01-21T07:27:10.715Z,13.55
2023-01-21T07:29:37.157Z,13.00
2023-01-21T07:32:03.772Z,13.43
2023-01-21T07:34:30.255Z,13.13
2023-01-21T07:36:56.594Z,12.48
2023-01-21T07:39:22.950Z,13.63
2023-01-21T07:41:49.372Z,12.98
2023-01-21T07:44:15.753Z,13.02
2023-01-21T07:46:42.117Z,13.63
2023-01-21T07:49:08.926Z,13.05
2023-01-21T07:51:35.358Z,13.20
2023-01-21T07:54:01.734Z,13.07
2023-01-21T07:56:28.204Z,13.70
2023-01-21T07:58:55.020Z,13.20
2023-01-21T08:01:23.257Z,14.75
2023-01-21T08:03:51.521Z,12.88
2023-01-21T08:06:17.919Z,13.77
2023-01-21T08:08:44.332Z,13.13
2023-01-21T08:11:10.686Z,13.55
2023-01-21T08:13:37.155Z,12.60
2023-01-21T08:16:04.672Z,14.57
2023-01-21T08:18:31.081Z,14.25
2023-01-21T08:20:58.155Z,15.90
2023-01-21T08:23:25.479Z,15.52
2023-01-21T08:25:52.149Z,12.93
2023-01-21T08:28:18.779Z,13.68
2023-01-21T08:30:45.214Z,14.88
2023-01-21T08:33:12.593Z,14.27
2023-01-21T08:35:39.108Z,14.23
2023-01-21T08:38:05.519Z,14.52
2023-01-21T08:40:31.867Z,17.02
2023-01-21T08:43:02.559Z,13.65
2023-01-21T08:45:29.302Z,14.48
2023-01-21T08:47:56.076Z,14.20
2023-01-21T08:50:22.900Z,15.90
2023-01-21T08:52:53.058Z,14.73
2023-01-21T08:55:19.935Z,16.08
2023-01-21T08:57:46.721Z,15.98
2023-01-21T09:00:14.239Z,16.85
2023-01-21T09:02:40.908Z,15.13
2023-01-21T09:05:07.495Z,14.88
2023-01-21T09:07:33.812Z,15.48
2023-01-21T09:10:00.193Z,15.43
2023-01-21T09:12:26.583Z,15.82
2023-01-21T09:14:52.917Z,15.95
2023-01-21T09:17:19.316Z,15.25
2023-01-21T09:19:45.750Z,15.43
2023-01-21T09:22:13.766Z,14.35
2023-01-21T09:24:40.130Z,13.43
2023-01-21T09:27:06.914Z,14.07
2023-01-21T09:29:33.778Z,14.32
2023-01-21T09:32:00.311Z,12.50
2023-01-21T09:34:26.725Z,14.75
2023-01-21T09:36:53.086Z,13.18
2023-01-21T09:39:19.519Z,14.77
2023-01-21T09:41:49.552Z,15.55
2023-01-21T09:44:34.276Z,14.25
2023-01-21T09:47:03.925Z,15.33
2023-01-21T09:49:36.632Z,20.33
2023-01-21T09:52:02.973Z,20.83
2023-01-21T09:54:31.009Z,22.65
2023-01-21T09:57:07.900Z,22.00
2023-01-21T09:59:40.371Z,19.35
2023-01-21T10:02:14.690Z,15.85
2023-01-21T10:04:48.096Z,14.87
2023-01-21T10:07:15.594Z,17.65
2023-01-21T10:09:44.823Z,20.70
2023-01-21T10:12:11.164Z,17.95
2023-01-21T10:14:46.850Z,18.30
2023-01-21T10:17:15.764Z,17.60
2023-01-21T10:19:45.475Z,17.77
2023-01-21T10:22:17.337Z,20.00
2023-01-21T10:24:47.420Z,18.67
2023-01-21T10:27:19.179Z,16.98
2023-01-21T10:29:47.543Z,15.55
2023-01-21T10:32:16.095Z,16.65
2023-01-21T10:34:47.375Z,19.10
2023-01-21T10:37:13.662Z,14.80
2023-01-21T10:39:55.427Z,16.42
2023-01-21T10:42:36.964Z,15.10
2023-01-21T10:45:21.313Z,14.65
2023-01-21T10:48:02.776Z,13.18
2023-01-21T10:50:43.686Z,16.27
2023-01-21T10:53:19.279Z,17.05
2023-01-21T10:56:00.957Z,12.05
2023-01-21T10:58:39.500Z,13.43
2023-01-21T11:01:07.822Z,12.85
2023-01-21T11:03:38.878Z,11.90
2023-01-21T11:06:08.445Z,12.63
2023-01-21T11:08:34.958Z,11.43
2023-01-21T11:11:02.017Z,11.27
2023-01-21T11:13:28.646Z,11.25
2023-01-21T11:15:57.654Z,12.40
2023-01-21T11:18:37.313Z,13.25
2023-01-21T11:21:09.772Z,12.50
2023-01-21T11:23:39.285Z,12.52
2023-01-21T11:26:09.419Z,13.88
2023-01-21T11:28:36.598Z,12.05
2023-01-21T11:31:24.792Z,12.20
2023-01-21T11:33:52.686Z,12.80
2023-01-21T11:36:20.451Z,12.85
2023-01-21T11:38:48.759Z,13.10
2023-01-21T11:41:17.244Z,12.60
2023-01-21T11:43:45.705Z,12.50
2023-01-21T11:46:21.415Z,11.98
2023-01-21T11:48:48.017Z,17.13
2023-01-21T11:51:15.004Z,14.63
2023-01-21T11:53:41.598Z,16.02
2023-01-21T11:56:07.994Z,15.88
2023-01-21T11:58:40.134Z,16.42
2023-01-21T12:01:18.133Z,17.50
2023-01-21T12:03:49.801Z,14.25
2023-01-21T12:06:25.403Z,15.93
2023-01-21T12:08:53.385Z,14.60
2023-01-21T12:11:21.724Z,14.25
2023-01-21T12:13:53.947Z,15.27
2023-01-21T12:16:26.217Z,15.93
2023-01-21T12:18:58.813Z,13.50
2023-01-21T12:21:37.552Z,13.40
2023-01-21T12:24:27.494Z,14.50
2023-01-21T12:27:02.642Z,13.07
2023-01-21T12:29:38.241Z,15.02
2023-01-21T12:32:23.815Z,14.82
2023-01-21T12:37:22.389Z,12.88
2023-01-21T12:39:49.805Z,13.30
2023-01-21T12:42:40.909Z,14.95
2023-01-21T12:45:12.953Z,15.02
2023-01-21T12:47:46.133Z,15.95
2023-01-21T12:50:23.772Z,13.60
2023-01-21T12:53:02.547Z,16.00
2023-01-21T12:55:35.433Z,18.70
2023-01-21T12:58:04.884Z,15.20
2023-01-21T13:00:32.657Z,18.92
2023-01-21T13:03:08.272Z,11.07
2023-01-21T13:05:50.069Z,15.60
2023-01-21T13:08:30.149Z,13.90
2023-01-21T13:10:59.841Z,12.80
2023-01-21T13:13:32.075Z,12.77
2023-01-21T13:16:00.240Z,14.32
2023-01-21T13:18:30.486Z,14.23
2023-01-21T13:21:00.656Z,13.93
2023-01-21T13:23:32.382Z,13.65
2023-01-21T13:25:58.736Z,14.38
2023-01-21T13:28:32.999Z,14.70
2023-01-21T13:31:08.627Z,12.98
2023-01-21T13:33:58.216Z,12.57
2023-01-21T13:36:33.763Z,13.98
2023-01-21T13:39:00.171Z,12.90
2023-01-21T13:41:35.901Z,11.93
2023-01-21T13:44:20.897Z,13.68
2023-01-21T13:47:07.893Z,11.50
2023-01-21T13:49:40.338Z,11.10
2023-01-21T13:52:17.495Z,10.70
2023-01-21T13:54:46.992Z,11.50
2023-01-21T13:57:22.647Z,10.90
2023-01-21T13:59:54.657Z,10.60
2023-01-21T14:02:21.038Z,11.15
2023-01-21T14:04:57.544Z,11.57
2023-01-21T14:07:29.865Z,11.57
2023-01-21T14:10:02.283Z,11.32
2023-01-21T14:12:53.081Z,12.20
2023-01-21T14:15:34.618Z,11.23
2023-01-21T14:18:05.267Z,12.13
2023-01-21T14:20:43.596Z,11.82
2023-01-21T14:23:34.603Z,12.38
2023-01-21T14:26:01.005Z,12.35
2023-01-21T14:28:50.073Z,11.18
2023-01-21T14:31:16.644Z,14.40
2023-01-21T14:33:46.749Z,17.35
2023-01-21T14:36:16.720Z,14.88
2023-01-21T14:39:21.964Z,13.02
2023-01-21T14:41:54.417Z,11.15
2023-01-21T14:44:35.851Z,11.88
2023-01-21T14:47:14.980Z,11.38
2023-01-21T14:49:45.940Z,11.88
2023-01-21T14:52:13.932Z,11.43
2023-01-21T14:54:43.377Z,10.75
2023-01-21T14:57:19.450Z,11.38
2023-01-21T14:59:46.429Z,11.68
2023-01-21T15:02:18.884Z,12.18
2023-01-21T15:04:52.114Z,11.57
2023-01-21T15:07:20.221Z,11.32
2023-01-21T15:09:51.488Z,12.73
2023-01-21T15:12:21.244Z,11.38
2023-01-21T15:14:47.870Z,12.93
2023-01-21T15:17:33.188Z,13.68
2023-01-21T15:20:19.516Z,13.38
2023-01-21T15:22:46.772Z,12.98
2023-01-21T15:25:20.869Z,13.55
2023-01-21T15:28:13.218Z,14.07
2023-01-21T15:30:57.544Z,13.45
2023-01-21T15:33:25.085Z,14.52
2023-01-21T15:35:53.159Z,13.88
2023-01-21T15:38:20.513Z,13.57
2023-01-21T15:40:46.839Z,13.30
2023-01-21T15:43:23.310Z,13.73
2023-01-21T15:45:55.473Z,14.43
2023-01-21T15:48:41.185Z,12.98
2023-01-21T15:51:18.046Z,12.77
2023-01-21T15:54:21.355Z,11.93
2023-01-21T15:56:57.317Z,13.15
2023-01-21T15:59:35.977Z,14.15
2023-01-21T16:02:02.266Z,13.05
2023-01-21T16:04:35.327Z,13.05
2023-01-21T16:07:01.862Z,12.98
2023-01-21T16:09:35.880Z,14.07
2023-01-21T16:12:08.807Z,12.30
2023-01-21T16:14:35.204Z,15.32
2023-01-21T16:17:07.294Z,14.55
2023-01-21T16:19:37.163Z,15.55
2023-01-21T16:22:07.535Z,16.45
2023-01-21T16:24:37.118Z,15.10
2023-01-21T16:27:16.509Z,13.52
2023-01-21T16:29:43.065Z,14.45
2023-01-21T16:32:15.916Z,13.70
2023-01-21T16:34:43.055Z,13.68
2023-01-21T16:37:13.616Z,14.25
2023-01-21T16:39:41.321Z,14.32
2023-01-21T16:42:20.970Z,13.82
2023-01-21T16:44:47.404Z,14.30
2023-01-21T16:47:20.341Z,14.10
2023-01-21T16:49:46.720Z,14.00
2023-01-21T16:52:19.940Z,12.70
2023-01-21T16:54:53.493Z,12.43
2023-01-21T16:57:23.330Z,13.77
2023-01-21T16:59:49.781Z,20.30
2023-01-21T17:02:28.616Z,11.93
2023-01-21T17:04:57.068Z,11.15
2023-01-21T17:07:29.707Z,11.32
2023-01-21T17:10:06.820Z,10.20
2023-01-21T17:12:36.161Z,11.20
2023-01-21T17:15:08.068Z,12.23
2023-01-21T17:17:36.096Z,9.55
2023-01-21T17:20:02.654Z,10.07
2023-01-21T17:22:30.985Z,13.30
2023-01-21T17:25:16.946Z,15.30
2023-01-21T17:27:51.770Z,11.13
2023-01-21T17:30:38.589Z,11.43
2023-01-21T17:33:05.124Z,6.70
2023-01-21T17:35:33.542Z,8.45
2023-01-21T17:38:01.322Z,7.88
2023-01-21T17:40:27.754Z,7.47
2023-01-21T17:42:54.714Z,5.80
2023-01-21T17:45:43.955Z,4.88
2023-01-21T17:48:20.349Z,5.85
2023-01-21T17:53:33.671Z,4.80
2023-01-21T17:56:09.941Z,5.10
2023-01-21T17:59:26.481Z,5.57
2023-01-21T18:01:57.785Z,5.63
2023-01-21T18:04:24.316Z,5.78
2023-01-21T18:06:52.488Z,5.30
2023-01-21T18:09:28.199Z,5.85
2023-01-21T18:11:58.395Z,5.00
2023-01-21T18:14:29.013Z,5.57
2023-01-21T18:16:59.153Z,6.20
2023-01-21T18:19:34.073Z,5.93
2023-01-21T18:22:01.425Z,6.72
2023-01-21T18:24:28.152Z,5.82
2023-01-21T18:26:56.522Z,7.03
2023-01-21T18:29:23.087Z,4.75
2023-01-21T18:31:54.362Z,4.90
2023-01-21T18:34:26.192Z,4.72
2023-01-21T18:36:53.013Z,6.25
2023-01-21T18:39:20.467Z,6.78
2023-01-21T18:41:47.317Z,7.28
2023-01-21T18:44:14.257Z,5.28
2023-01-21T18:46:45.531Z,6.05
2023-01-21T18:49:12.003Z,8.27
2023-01-21T18:51:38.411Z,5.18
2023-01-21T18:54:04.940Z,5.78
2023-01-21T18:56:31.322Z,7.60
2023-01-21T18:58:57.733Z,8.90
2023-01-21T19:01:24.345Z,5.93
2023-01-21T19:03:52.381Z,10.10
2023-01-21T19:06:18.820Z,5.53
2023-01-21T19:08:46.039Z,7.60
2023-01-21T19:11:13.946Z,4.50
2023-01-21T19:13:40.495Z,7.15
2023-01-21T19:16:12.319Z,4.97
2023-01-21T19:18:38.716Z,5.30
2023-01-21T19:21:05.320Z,5.95
2023-01-21T19:23:31.666Z,4.45
2023-01-21T19:25:58.463Z,4.85
2023-01-21T19:28:25.072Z,4.05
2023-01-21T19:30:55.357Z,5.38
2023-01-21T19:33:22.513Z,3.63
2023-01-21T19:35:49.135Z,4.38
2023-01-21T19:38:19.232Z,4.05
2023-01-21T19:40:48.437Z,4.07
2023-01-21T19:43:17.015Z,5.60
2023-01-21T19:45:44.075Z,4.60
2023-01-21T19:48:12.086Z,4.55
2023-01-21T19:50:38.573Z,5.55
2023-01-21T19:53:06.051Z,4.97
2023-01-21T19:55:34.273Z,3.97
2023-01-21T19:58:01.906Z,2.95
2023-01-21T20:00:30.532Z,3.67
2023-01-21T20:02:57.015Z,5.70
2023-01-21T20:05:23.870Z,3.70
2023-01-21T20:07:50.799Z,4.75
2023-01-21T20:10:17.350Z,3.80
2023-01-21T20:12:44.189Z,4.00
2023-01-21T20:15:14.294Z,3.33
2023-01-21T20:17:42.498Z,3.83
2023-01-21T20:20:15.474Z,3.42
2023-01-21T20:22:42.234Z,3.90
2023-01-21T20:25:09.982Z,4.20
2023-01-21T20:27:36.319Z,4.18
2023-01-21T20:30:15.278Z,4.07
2023-01-21T20:32:43.319Z,4.40
2023-01-21T20:35:10.080Z,4.00
2023-01-21T20:37:36.674Z,4.05
2023-01-21T20:40:03.077Z,4.10
2023-01-21T20:45:00.813Z,3.90
2023-01-21T20:47:38.112Z,4.15
2023-01-21T20:50:24.778Z,4.10
2023-01-21T20:52:52.612Z,3.80
2023-01-21T20:55:21.246Z,3.90
2023-01-21T20:57:47.935Z,3.67
2023-01-21T21:00:16.105Z,4.20
2023-01-21T21:02:42.543Z,3.55
2023-01-21T21:05:09.296Z,3.95
2023-01-21T21:07:35.970Z,3.40
2023-01-21T21:10:02.390Z,3.45
2023-01-21T21:12:28.834Z,3.83
2023-01-21T21:14:55.269Z,3.65
2023-01-21T21:17:21.730Z,4.03
2023-01-21T21:19:48.218Z,3.85
2023-01-21T21:22:16.247Z,4.43
2023-01-21T21:24:43.400Z,4.43
2023-01-21T21:27:12.523Z,3.83
2023-01-21T21:29:38.975Z,3.90
2023-01-21T21:32:07.116Z,4.22
2023-01-21T21:34:34.803Z,3.72
2023-01-21T21:37:01.169Z,3.80
2023-01-21T21:39:27.726Z,4.32
2023-01-21T21:42:15.095Z,4.47
2023-01-21T21:44:43.029Z,4.20
2023-01-21T21:47:28.504Z,4.43
2023-01-21T21:49:54.983Z,4.22
2023-01-21T21:52:21.552Z,4.50
2023-01-21T21:54:48.051Z,4.57
2023-01-21T21:57:14.603Z,5.07
2023-01-21T21:59:42.458Z,4.60
2023-01-21T22:02:12.411Z,4.13
2023-01-21T22:04:39.225Z,4.43
2023-01-21T22:07:05.756Z,4.38
2023-01-21T22:09:34.041Z,4.32
2023-01-21T22:12:01.278Z,4.32
2023-01-21T22:14:27.688Z,4.45
2023-01-21T22:16:54.185Z,4.30
2023-01-21T22:19:20.589Z,4.40
2023-01-21T22:21:47.027Z,4.82
2023-01-21T22:24:13.548Z,4.50
2023-01-21T22:26:39.876Z,4.32
2023-01-21T22:29:06.391Z,4.40
2023-01-21T22:31:33.322Z,4.70
2023-01-21T22:34:00.331Z,5.07
2023-01-21T22:36:28.142Z,4.97
2023-01-21T22:38:54.632Z,4.45
2023-01-21T22:41:21.722Z,5.15
2023-01-21T22:43:48.550Z,4.18
2023-01-21T22:46:16.080Z,4.80
2023-01-21T22:48:42.604Z,4.60
2023-01-21T22:51:12.465Z,4.55
2023-01-21T22:53:43.837Z,4.65
2023-01-21T22:56:11.194Z,4.80
2023-01-21T22:58:37.838Z,4.55
2023-01-21T23:01:04.605Z,5.20
2023-01-21T23:03:31.443Z,4.70
2023-01-21T23:06:05.534Z,4.63
2023-01-21T23:08:31.961Z,4.82
2023-01-21T23:11:02.306Z,5.07
2023-01-21T23:13:28.835Z,4.90
2023-01-21T23:15:55.367Z,5.20
2023-01-21T23:18:24.904Z,5.38
2023-01-21T23:20:51.310Z,5.78
2023-01-21T23:23:17.711Z,5.10
2023-01-21T23:25:45.571Z,5.82
2023-01-21T23:28:12.423Z,5.90
2023-01-21T23:30:38.857Z,5.50
2023-01-21T23:33:05.244Z,5.40
2023-01-21T23:35:34.074Z,5.88
2023-01-21T23:38:00.855Z,5.55
2023-01-21T23:40:27.268Z,5.65
2023-01-21T23:42:53.661Z,5.53
2023-01-21T23:45:20.103Z,5.28
2023-01-21T23:47:47.563Z,5.25
2023-01-21T23:50:17.095Z,5.88
2023-01-21T23:52:43.630Z,5.60
2023-01-21T23:55:10.869Z,6.60
2023-01-21T23:57:37.285Z,5.65
